createdAt,value
2022-12-04T00:04:21.002Z,20.14
2022-12-04T00:09:24.415Z,20.08
2022-12-04T00:14:27.892Z,20.01
2022-12-04T00:19:31.273Z,19.95
2022-12-04T00:24:35.171Z,19.89
2022-12-04T00:29:38.583Z,19.83
2022-12-04T00:34:41.997Z,19.78
2022-12-04T00:39:45.516Z,19.72
2022-12-04T00:44:48.928Z,19.67
2022-12-04T00:49:52.521Z,19.62
2022-12-04T00:54:56.174Z,19.57
2022-12-04T01:00:00.349Z,19.52
2022-12-04T01:05:04.251Z,19.47
2022-12-04T01:10:12.151Z,19.42
2022-12-04T01:15:16.098Z,19.37
2022-12-04T01:20:20.161Z,19.32
2022-12-04T01:25:23.544Z,19.27
2022-12-04T01:30:26.943Z,19.22
2022-12-04T01:35:30.717Z,19.18
2022-12-04T01:40:34.333Z,19.13
2022-12-04T01:45:41.543Z,19.08
2022-12-04T01:50:46.084Z,19.03
2022-12-04T01:55:50.124Z,18.99
2022-12-04T02:00:58.514Z,18.94
2022-12-04T02:06:02.544Z,18.90
2022-12-04T02:11:05.817Z,18.86
2022-12-04T02:16:35.635Z,18.81
2022-12-04T02:21:47.184Z,18.76
2022-12-04T02:26:56.586Z,18.73
2022-12-04T02:32:23.446Z,18.69
2022-12-04T02:37:41.336Z,18.65
2022-12-04T02:43:05.807Z,18.60
2022-12-04T02:48:09.433Z,18.55
2022-12-04T02:53:18.067Z,18.51
2022-12-04T02:58:27.605Z,18.47
2022-12-04T03:03:33.808Z,18.43
2022-12-04T03:08:48.092Z,18.39
2022-12-04T03:14:00.297Z,18.35
2022-12-04T03:19:16.966Z,18.31
2022-12-04T03:24:27.086Z,18.29
2022-12-04T03:29:43.720Z,18.25
2022-12-04T03:34:57.253Z,18.22
2022-12-04T03:40:15.628Z,18.18
2022-12-04T03:45:37.454Z,18.15
2022-12-04T03:50:50.719Z,18.13
2022-12-04T03:56:10.355Z,18.09
2022-12-04T04:01:17.998Z,18.05
2022-12-04T04:06:26.344Z,18.02
2022-12-04T04:11:38.674Z,17.99
2022-12-04T04:17:08.331Z,17.97
2022-12-04T04:22:30.932Z,17.94
2022-12-04T04:27:34.331Z,17.90
2022-12-04T04:32:49.733Z,17.88
2022-12-04T04:38:08.559Z,17.85
2022-12-04T04:43:32.967Z,17.82
2022-12-04T04:48:51.350Z,17.79
2022-12-04T04:53:58.582Z,17.77
2022-12-04T04:59:01.952Z,17.74
2022-12-04T05:04:06.817Z,17.71
2022-12-04T05:09:10.179Z,17.70
2022-12-04T05:14:13.572Z,17.67
2022-12-04T05:19:35.478Z,17.66
2022-12-04T05:24:38.976Z,17.68
2022-12-04T05:29:42.351Z,17.71
2022-12-04T05:34:50.931Z,17.77
2022-12-04T05:39:54.756Z,17.85
2022-12-04T05:44:58.585Z,17.96
2022-12-04T05:50:01.937Z,18.10
2022-12-04T05:55:06.142Z,18.26
2022-12-04T06:00:10.176Z,18.43
2022-12-04T06:05:16.988Z,18.60
2022-12-04T06:10:20.367Z,18.75
2022-12-04T06:15:24.543Z,18.89
2022-12-04T06:20:28.439Z,19.02
2022-12-04T06:25:31.943Z,19.13
2022-12-04T06:30:35.335Z,19.24
2022-12-04T06:35:38.733Z,19.34
2022-12-04T06:40:42.064Z,19.44
2022-12-04T06:45:45.599Z,19.53
2022-12-04T06:50:49.071Z,19.62
2022-12-04T06:55:52.421Z,19.71
2022-12-04T07:00:57.259Z,19.80
2022-12-04T07:06:20.047Z,19.87
2022-12-04T07:11:24.118Z,19.94
2022-12-04T07:16:29.157Z,19.99
2022-12-04T07:21:33.579Z,20.06
2022-12-04T07:26:37.289Z,20.10
2022-12-04T07:31:41.035Z,20.15
2022-12-04T07:36:44.448Z,20.21
2022-12-04T07:41:47.795Z,20.26
2022-12-04T07:46:51.220Z,20.29
2022-12-04T07:51:54.617Z,20.35
2022-12-04T07:56:58.503Z,20.40
2022-12-04T08:02:01.980Z,20.46
2022-12-04T08:07:05.478Z,20.48
2022-12-04T08:12:08.983Z,20.50
2022-12-04T08:17:12.508Z,20.55
2022-12-04T08:22:20.353Z,20.58
2022-12-04T08:27:26.833Z,20.62
2022-12-04T08:32:30.211Z,20.62
2022-12-04T08:37:33.669Z,20.60
2022-12-04T08:42:37.013Z,20.56
2022-12-04T08:47:40.377Z,20.54
2022-12-04T08:52:43.777Z,20.54
2022-12-04T08:57:47.157Z,20.53
2022-12-04T09:02:50.590Z,20.53
2022-12-04T09:07:54.013Z,20.54
2022-12-04T09:12:57.490Z,20.56
2022-12-04T09:18:01.822Z,20.62
2022-12-04T09:23:06.091Z,20.67
2022-12-04T09:28:09.491Z,20.74
2022-12-04T09:33:13.193Z,20.81
2022-12-04T09:38:16.524Z,20.87
2022-12-04T09:43:36.712Z,20.93
2022-12-04T09:48:43.292Z,21.01
2022-12-04T09:53:56.643Z,21.05
2022-12-04T09:59:17.304Z,21.11
2022-12-04T10:04:20.852Z,21.16
2022-12-04T10:09:40.420Z,21.20
2022-12-04T10:15:05.811Z,21.27
2022-12-04T10:20:45.987Z,21.31
2022-12-04T10:25:52.311Z,21.31
2022-12-04T10:30:59.923Z,21.29
2022-12-04T10:36:04.127Z,21.27
2022-12-04T10:41:18.164Z,21.23
2022-12-04T10:46:23.928Z,21.20
2022-12-04T10:51:29.337Z,21.20
2022-12-04T10:56:32.705Z,21.19
2022-12-04T11:01:36.223Z,21.18
2022-12-04T11:06:39.989Z,21.18
2022-12-04T11:11:43.357Z,21.18
2022-12-04T11:16:50.248Z,21.19
2022-12-04T11:21:56.383Z,21.19
2022-12-04T11:27:00.691Z,21.16
2022-12-04T11:32:08.017Z,21.14
2022-12-04T11:37:22.679Z,21.12
2022-12-04T11:42:29.608Z,21.13
2022-12-04T11:47:34.010Z,21.15
2022-12-04T11:52:52.642Z,21.18
2022-12-04T11:58:18.024Z,21.22
2022-12-04T12:03:39.009Z,21.26
2022-12-04T12:08:42.462Z,21.28
2022-12-04T12:14:05.721Z,21.28
2022-12-04T12:19:17.793Z,21.28
2022-12-04T12:24:32.465Z,21.28
2022-12-04T12:29:51.220Z,21.27
2022-12-04T12:34:55.644Z,21.28
2022-12-04T12:39:59.350Z,21.31
2022-12-04T12:45:12.228Z,21.33
2022-12-04T12:50:44.995Z,21.36
2022-12-04T12:56:51.576Z,21.37
2022-12-04T13:02:01.120Z,21.39
2022-12-04T13:07:14.672Z,21.40
2022-12-04T13:12:20.717Z,21.39
2022-12-04T13:17:38.719Z,21.39
2022-12-04T13:23:20.025Z,21.38
2022-12-04T13:28:49.365Z,21.36
2022-12-04T13:34:17.321Z,21.35
2022-12-04T13:39:54.866Z,21.34
2022-12-04T13:45:03.238Z,21.37
2022-12-04T13:50:28.535Z,21.39
2022-12-04T13:55:40.242Z,21.40
2022-12-04T14:00:44.685Z,21.41
2022-12-04T14:05:48.457Z,21.43
2022-12-04T14:11:04.109Z,21.47
2022-12-04T14:16:16.766Z,21.48
2022-12-04T14:21:20.240Z,21.48
2022-12-04T14:27:09.992Z,21.48
2022-12-04T14:31:55.435Z,21.50
2022-12-04T14:37:00.241Z,21.52
2022-12-04T14:42:14.551Z,21.56
2022-12-04T14:47:42.084Z,21.58
2022-12-04T14:53:11.774Z,21.57
2022-12-04T14:58:36.274Z,21.57
2022-12-04T15:03:45.449Z,21.56
2022-12-04T15:09:16.863Z,21.57
2022-12-04T15:14:20.157Z,21.56
2022-12-04T15:19:23.449Z,21.57
2022-12-04T15:24:27.729Z,21.59
2022-12-04T15:29:45.669Z,21.60
2022-12-04T15:35:09.418Z,21.62
2022-12-04T15:40:31.484Z,21.64
2022-12-04T15:45:38.054Z,21.65
2022-12-04T15:50:42.437Z,21.65
2022-12-04T15:55:55.515Z,21.66
2022-12-04T16:01:06.646Z,21.67
2022-12-04T16:06:20.816Z,21.68
2022-12-04T16:11:30.587Z,21.70
2022-12-04T16:16:35.431Z,21.70
2022-12-04T16:21:38.828Z,21.72
2022-12-04T16:26:42.452Z,21.74
2022-12-04T16:31:46.375Z,21.74
2022-12-04T16:36:50.085Z,21.74
2022-12-04T16:41:53.526Z,21.75
2022-12-04T16:46:56.959Z,21.78
2022-12-04T16:52:00.355Z,21.80
2022-12-04T16:57:04.207Z,21.81
2022-12-04T17:02:16.591Z,21.82
2022-12-04T17:07:20.689Z,21.82
2022-12-04T17:12:24.004Z,21.81
2022-12-04T17:17:27.387Z,21.82
2022-12-04T17:22:31.366Z,21.83
2022-12-04T17:27:35.454Z,21.85
2022-12-04T17:32:38.799Z,21.86
2022-12-04T17:37:42.188Z,21.85
2022-12-04T17:42:45.542Z,21.86
2022-12-04T17:47:48.829Z,21.85
2022-12-04T17:52:52.361Z,21.86
2022-12-04T17:57:55.734Z,21.86
2022-12-04T18:02:59.150Z,21.88
2022-12-04T18:08:02.624Z,21.87
2022-12-04T18:13:06.092Z,21.87
2022-12-04T18:18:09.662Z,21.86
2022-12-04T18:25:59.762Z,22.54
2022-12-04T18:31:05.415Z,22.87
2022-12-04T18:36:16.591Z,23.04
2022-12-04T18:41:20.093Z,23.16
2022-12-04T18:46:24.897Z,23.24
2022-12-04T18:51:33.070Z,23.29
2022-12-04T18:56:36.909Z,23.34
2022-12-04T19:01:41.840Z,23.38
2022-12-04T19:06:50.699Z,23.44
2022-12-04T19:11:54.197Z,23.47
2022-12-04T19:16:57.757Z,23.54
2022-12-04T19:22:02.601Z,23.59
2022-12-04T19:27:12.355Z,23.64
2022-12-04T19:32:15.891Z,23.67
2022-12-04T19:37:19.394Z,23.69
2022-12-04T19:42:22.831Z,23.74
2022-12-04T19:47:26.755Z,23.78
2022-12-04T19:52:30.145Z,23.84
2022-12-04T19:57:33.589Z,23.89
2022-12-04T20:02:37.253Z,23.92
2022-12-04T20:07:40.890Z,23.93
2022-12-04T20:12:44.437Z,23.94
2022-12-04T20:17:47.851Z,23.94
2022-12-04T20:22:51.375Z,23.95
2022-12-04T20:27:54.935Z,23.95
2022-12-04T20:32:58.425Z,23.98
2022-12-04T20:38:03.529Z,24.00
2022-12-04T20:43:07.803Z,24.04
2022-12-04T20:48:13.577Z,24.06
2022-12-04T20:53:18.084Z,24.09
2022-12-04T20:58:23.554Z,24.11
2022-12-04T21:03:29.368Z,24.12
2022-12-04T21:08:52.662Z,24.11
2022-12-04T21:14:25.693Z,24.09
2022-12-04T21:19:30.291Z,24.06
2022-12-04T21:24:38.896Z,24.03
2022-12-04T21:29:43.858Z,23.98
2022-12-04T21:34:48.453Z,23.92
2022-12-04T21:39:51.942Z,23.85
2022-12-04T21:44:55.378Z,23.77
2022-12-04T21:50:00.010Z,23.69
2022-12-04T21:55:05.361Z,23.59
2022-12-04T22:00:09.261Z,23.50
2022-12-04T22:05:12.540Z,23.40
2022-12-04T22:10:15.868Z,23.27
2022-12-04T22:15:19.376Z,23.16
2022-12-04T22:20:23.814Z,23.03
2022-12-04T22:25:29.677Z,22.91
2022-12-04T22:30:34.775Z,22.80
2022-12-04T22:35:38.162Z,22.68
2022-12-04T22:45:39.042Z,22.51
2022-12-04T22:50:42.403Z,22.48
2022-12-04T22:55:45.774Z,22.38
2022-12-04T23:00:49.240Z,22.28
2022-12-04T23:05:52.761Z,22.18
2022-12-04T23:10:56.169Z,22.10
2022-12-04T23:16:02.454Z,22.01
2022-12-04T23:21:10.830Z,21.91
2022-12-04T23:26:17.111Z,21.83
2022-12-04T23:31:21.004Z,21.74
2022-12-04T23:36:25.175Z,21.66
2022-12-04T23:41:31.611Z,21.57
2022-12-04T23:46:34.975Z,21.48
2022-12-04T23:51:38.394Z,21.40
2022-12-04T23:56:41.888Z,21.31
